createdAt,value
2023-01-19T00:02:11.767Z,94564.44
2023-01-19T00:05:05.399Z,94559.96
2023-01-19T00:08:14.816Z,94560.21
2023-01-19T00:11:07.259Z,94558.04
2023-01-19T00:13:59.799Z,94554.60
2023-01-19T00:16:53.401Z,94553.86
2023-01-19T00:19:46.390Z,94557.48
2023-01-19T00:22:40.609Z,94551.02
2023-01-19T00:25:34.399Z,94555.03
2023-01-19T00:28:27.563Z,94567.70
2023-01-19T00:31:22.111Z,94562.85
2023-01-19T00:34:17.556Z,94560.06
2023-01-19T00:37:20.577Z,94556.16
2023-01-19T00:40:15.314Z,94566.91
2023-01-19T00:43:07.841Z,94566.38
2023-01-19T00:46:00.763Z,94563.36
2023-01-19T00:48:52.711Z,94563.04
2023-01-19T00:51:49.060Z,94546.48
2023-01-19T00:54:45.989Z,94544.09
2023-01-19T00:57:39.046Z,94551.23
2023-01-19T01:00:31.138Z,94545.89
2023-01-19T01:03:28.239Z,94539.33
2023-01-19T01:06:21.879Z,94534.52
2023-01-19T01:09:53.813Z,94516.84
2023-01-19T01:12:57.540Z,94508.32
2023-01-19T01:15:53.603Z,94507.71
2023-01-19T01:18:47.140Z,94508.21
2023-01-19T01:21:40.187Z,94501.06
2023-01-19T01:24:34.456Z,94498.51
2023-01-19T01:27:27.467Z,94502.50
2023-01-19T01:30:21.458Z,94492.65
2023-01-19T01:33:40.994Z,94490.14
2023-01-19T01:36:33.534Z,94485.35
2023-01-19T01:39:25.840Z,94486.64
2023-01-19T01:42:28.215Z,94476.67
2023-01-19T01:45:38.983Z,94472.61
2023-01-19T01:48:32.366Z,94472.39
2023-01-19T01:51:29.459Z,94475.42
2023-01-19T01:54:30.454Z,94485.17
2023-01-19T01:57:25.345Z,94489.31
2023-01-19T02:00:17.971Z,94490.98
2023-01-19T02:03:11.551Z,94486.83
2023-01-19T02:06:07.436Z,94479.92
2023-01-19T02:09:28.771Z,94466.05
2023-01-19T02:12:41.575Z,94465.58
2023-01-19T02:15:34.195Z,94465.36
2023-01-19T02:18:32.453Z,94455.64
2023-01-19T02:22:26.762Z,94443.27
2023-01-19T02:26:21.043Z,94450.13
2023-01-19T02:30:14.407Z,94454.36
2023-01-19T02:34:26.591Z,94460.58
2023-01-19T02:38:40.184Z,94469.96
2023-01-19T02:42:43.704Z,94468.77
2023-01-19T02:46:52.530Z,94469.30
2023-01-19T02:50:54.206Z,94478.39
2023-01-19T02:54:09.854Z,94460.69
2023-01-19T02:57:41.128Z,94458.38
2023-01-19T03:05:35.165Z,94454.46
2023-01-19T03:08:44.483Z,94455.98
2023-01-19T03:11:14.891Z,94449.55
2023-01-19T03:13:45.903Z,94446.33
2023-01-19T03:16:14.023Z,94443.06
2023-01-19T03:18:47.709Z,94444.27
2023-01-19T03:21:19.713Z,94444.14
2023-01-19T03:23:50.306Z,94451.15
2023-01-19T03:26:25.878Z,94449.66
2023-01-19T03:28:56.523Z,94447.69
2023-01-19T03:31:28.409Z,94446.89
2023-01-19T03:34:05.493Z,94445.70
2023-01-19T03:36:45.076Z,94445.23
2023-01-19T03:39:18.014Z,94449.17
2023-01-19T03:41:50.210Z,94458.70
2023-01-19T03:44:18.390Z,94458.67
2023-01-19T03:46:48.201Z,94463.25
2023-01-19T03:49:16.752Z,94465.86
2023-01-19T03:51:46.128Z,94469.30
2023-01-19T03:54:14.205Z,94466.29
2023-01-19T03:56:43.756Z,94469.02
2023-01-19T03:59:11.838Z,94466.17
2023-01-19T04:01:40.738Z,94474.33
2023-01-19T04:04:09.543Z,94468.34
2023-01-19T04:06:43.328Z,94469.47
2023-01-19T04:09:12.424Z,94461.61
2023-01-19T04:11:41.672Z,94451.58
2023-01-19T04:14:13.939Z,94447.46
2023-01-19T04:16:42.141Z,94446.84
2023-01-19T04:19:11.657Z,94448.54
2023-01-19T04:21:39.842Z,94447.36
2023-01-19T04:24:10.433Z,94444.85
2023-01-19T04:26:38.521Z,94443.96
2023-01-19T04:29:07.051Z,94445.58
2023-01-19T04:31:35.940Z,94449.71
2023-01-19T04:34:04.391Z,94447.77
2023-01-19T04:36:32.471Z,94446.33
2023-01-19T04:39:00.572Z,94447.27
2023-01-19T04:41:30.284Z,94447.38
2023-01-19T04:43:59.145Z,94455.00
2023-01-19T04:46:27.308Z,94468.05
2023-01-19T04:48:56.193Z,94480.44
2023-01-19T04:51:30.739Z,94481.74
2023-01-19T04:54:28.558Z,94481.40
2023-01-19T04:57:12.033Z,94487.73
2023-01-19T05:00:21.446Z,94494.16
2023-01-19T05:02:52.169Z,94499.63
2023-01-19T05:05:20.913Z,94502.42
2023-01-19T05:07:48.965Z,94499.10
2023-01-19T05:10:17.267Z,94501.35
2023-01-19T05:12:45.294Z,94500.98
2023-01-19T05:15:13.416Z,94501.57
2023-01-19T05:17:41.975Z,94504.29
2023-01-19T05:20:12.558Z,94509.85
2023-01-19T05:22:41.522Z,94521.06
2023-01-19T05:25:11.126Z,94531.90
2023-01-19T05:27:39.271Z,94541.36
2023-01-19T05:30:09.326Z,94543.05
2023-01-19T05:32:38.832Z,94540.93
2023-01-19T05:35:20.167Z,94547.05
2023-01-19T05:37:55.427Z,94552.87
2023-01-19T05:40:44.121Z,94558.31
2023-01-19T05:43:13.280Z,94560.52
2023-01-19T05:45:41.818Z,94561.06
2023-01-19T05:48:10.676Z,94564.92
2023-01-19T05:50:38.889Z,94566.23
2023-01-19T05:53:07.069Z,94559.54
2023-01-19T05:55:35.214Z,94557.43
2023-01-19T05:58:03.894Z,94556.98
2023-01-19T06:00:31.937Z,94554.95
2023-01-19T06:03:01.110Z,94548.19
2023-01-19T06:05:30.549Z,94548.67
2023-01-19T06:07:58.998Z,94544.62
2023-01-19T06:10:27.170Z,94546.33
2023-01-19T06:12:55.330Z,94547.36
2023-01-19T06:15:23.950Z,94541.27
2023-01-19T06:17:51.947Z,94541.39
2023-01-19T06:20:20.166Z,94542.73
2023-01-19T06:22:48.239Z,94539.02
2023-01-19T06:25:16.989Z,94537.41
2023-01-19T06:27:46.217Z,94541.10
2023-01-19T06:30:14.625Z,94548.98
2023-01-19T06:32:42.711Z,94556.20
2023-01-19T06:35:12.371Z,94559.02
2023-01-19T06:37:41.425Z,94547.63
2023-01-19T06:40:10.354Z,94538.83
2023-01-19T06:42:38.428Z,94532.69
2023-01-19T06:45:07.265Z,94534.29
2023-01-19T06:47:35.220Z,94536.10
2023-01-19T06:50:03.627Z,94532.63
2023-01-19T06:52:31.897Z,94535.05
2023-01-19T06:55:00.011Z,94544.10
2023-01-19T06:57:28.163Z,94538.17
2023-01-19T06:59:58.577Z,94529.89
2023-01-19T07:02:28.559Z,94535.13
2023-01-19T07:04:57.160Z,94541.17
2023-01-19T07:07:25.275Z,94538.17
2023-01-19T07:09:54.321Z,94534.34
2023-01-19T07:12:23.353Z,94534.89
2023-01-19T07:14:51.799Z,94528.35
2023-01-19T07:17:19.999Z,94529.03
2023-01-19T07:19:48.120Z,94518.45
2023-01-19T07:22:16.159Z,94509.58
2023-01-19T07:24:45.316Z,94521.49
2023-01-19T07:27:13.604Z,94535.31
2023-01-19T07:29:43.028Z,94543.56
2023-01-19T07:32:11.853Z,94546.57
2023-01-19T07:34:39.877Z,94541.23
2023-01-19T07:37:08.021Z,94541.83
2023-01-19T07:39:37.256Z,94538.40
2023-01-19T07:42:05.451Z,94534.42
2023-01-19T07:44:37.307Z,94533.30
2023-01-19T07:47:07.575Z,94536.84
2023-01-19T07:49:36.487Z,94538.42
2023-01-19T07:52:05.093Z,94535.61
2023-01-19T07:54:34.324Z,94543.61
2023-01-19T07:57:02.361Z,94553.73
2023-01-19T07:59:31.206Z,94559.34
2023-01-19T08:01:59.837Z,94559.98
2023-01-19T08:04:28.848Z,94562.77
2023-01-19T08:06:57.134Z,94561.44
2023-01-19T08:09:25.199Z,94562.58
2023-01-19T08:12:21.690Z,94552.08
2023-01-19T08:14:49.812Z,94544.54
2023-01-19T08:17:19.955Z,94548.60
2023-01-19T08:19:47.981Z,94541.00
2023-01-19T08:22:16.077Z,94536.26
2023-01-19T08:24:44.011Z,94546.04
2023-01-19T08:27:14.992Z,94549.88
2023-01-19T08:29:43.326Z,94542.03
2023-01-19T08:32:11.555Z,94542.12
2023-01-19T08:34:40.740Z,94538.49
2023-01-19T08:37:08.700Z,94534.82
2023-01-19T08:39:36.857Z,94532.91
2023-01-19T08:42:05.512Z,94531.07
2023-01-19T08:44:33.526Z,94529.46
2023-01-19T08:47:01.602Z,94529.41
2023-01-19T08:49:30.501Z,94529.34
2023-01-19T08:51:58.534Z,94532.52
2023-01-19T08:54:26.997Z,94529.66
2023-01-19T08:56:55.106Z,94525.05
2023-01-19T08:59:23.029Z,94528.41
2023-01-19T09:01:51.300Z,94533.83
2023-01-19T09:04:19.332Z,94526.29
2023-01-19T09:06:47.297Z,94519.48
2023-01-19T09:09:15.478Z,94516.90
2023-01-19T09:11:43.372Z,94523.45
2023-01-19T09:14:11.479Z,94531.84
2023-01-19T09:16:39.657Z,94525.56
2023-01-19T09:19:08.772Z,94523.80
2023-01-19T09:21:36.901Z,94518.98
2023-01-19T09:24:05.200Z,94511.59
2023-01-19T09:26:33.364Z,94510.85
2023-01-19T09:29:01.586Z,94518.70
2023-01-19T09:31:29.643Z,94528.34
2023-01-19T09:33:57.805Z,94524.71
2023-01-19T09:36:25.833Z,94526.02
2023-01-19T09:38:54.502Z,94527.16
2023-01-19T09:41:22.844Z,94535.05
2023-01-19T09:44:01.071Z,94536.20
2023-01-19T09:46:41.554Z,94541.42
2023-01-19T09:49:31.497Z,94541.63
2023-01-19T09:51:59.594Z,94536.85
2023-01-19T09:54:41.147Z,94528.91
2023-01-19T09:57:13.730Z,94515.39
2023-01-19T09:59:43.974Z,94513.52
2023-01-19T10:02:42.662Z,94511.05
2023-01-19T10:05:20.035Z,94507.43
2023-01-19T10:08:12.147Z,94502.68
2023-01-19T10:10:45.629Z,94500.59
2023-01-19T10:13:52.497Z,94505.90
2023-01-19T10:16:45.467Z,94515.83
2023-01-19T10:19:44.611Z,94515.70
2023-01-19T10:22:22.263Z,94516.31
2023-01-19T10:24:55.588Z,94510.91
2023-01-19T10:27:29.483Z,94510.14
2023-01-19T10:29:59.276Z,94507.35
2023-01-19T10:32:33.640Z,94487.90
2023-01-19T10:35:14.522Z,94488.06
2023-01-19T10:37:45.305Z,94489.14
2023-01-19T10:40:13.426Z,94486.75
2023-01-19T10:42:42.280Z,94488.21
2023-01-19T10:45:23.852Z,94488.32
2023-01-19T10:47:54.401Z,94484.09
2023-01-19T10:50:35.367Z,94489.32
2023-01-19T10:53:08.242Z,94493.05
2023-01-19T10:55:38.846Z,94496.38
2023-01-19T10:58:25.278Z,94495.06
2023-01-19T11:00:53.724Z,94494.69
2023-01-19T11:03:32.856Z,94500.19
2023-01-19T11:06:16.392Z,94501.31
2023-01-19T11:08:47.027Z,94500.41
2023-01-19T11:11:15.574Z,94498.08
2023-01-19T11:13:45.482Z,94499.95
2023-01-19T11:16:25.733Z,94497.63
2023-01-19T11:18:56.762Z,94497.29
2023-01-19T11:21:27.088Z,94500.07
2023-01-19T11:23:58.286Z,94492.41
2023-01-19T11:26:34.954Z,94498.95
2023-01-19T11:29:04.155Z,94499.44
2023-01-19T11:31:35.153Z,94501.76
2023-01-19T11:34:05.939Z,94494.40
2023-01-19T11:36:36.829Z,94488.74
2023-01-19T11:39:28.097Z,94494.27
2023-01-19T11:42:02.545Z,94497.46
2023-01-19T11:44:35.588Z,94504.73
2023-01-19T11:47:12.309Z,94496.34
2023-01-19T11:49:49.688Z,94489.52
2023-01-19T11:52:36.158Z,94498.40
2023-01-19T11:55:14.854Z,94507.02
2023-01-19T11:57:47.486Z,94501.62
2023-01-19T12:00:37.225Z,94500.56
2023-01-19T12:03:12.928Z,94503.08
2023-01-19T12:05:48.030Z,94509.91
2023-01-19T12:08:22.015Z,94516.84
2023-01-19T12:10:52.587Z,94515.93
2023-01-19T12:13:23.475Z,94519.90
2023-01-19T12:15:57.939Z,94534.65
2023-01-19T12:18:49.186Z,94538.73
2023-01-19T12:21:19.365Z,94536.86
2023-01-19T12:24:16.417Z,94523.30
2023-01-19T12:26:54.305Z,94525.60
2023-01-19T12:29:30.726Z,94531.48
2023-01-19T12:32:13.991Z,94535.67
2023-01-19T12:34:52.168Z,94532.89
2023-01-19T12:37:26.255Z,94537.25
2023-01-19T12:39:58.074Z,94548.83
2023-01-19T12:42:28.518Z,94550.27
2023-01-19T12:45:07.986Z,94548.09
2023-01-19T12:47:37.852Z,94557.27
2023-01-19T12:50:17.205Z,94567.15
2023-01-19T12:52:57.765Z,94562.39
2023-01-19T12:55:35.414Z,94568.63
2023-01-19T12:58:07.964Z,94575.06
2023-01-19T13:00:41.831Z,94576.03
2023-01-19T13:03:22.035Z,94581.05
2023-01-19T13:05:53.495Z,94587.86
2023-01-19T13:08:28.126Z,94600.05
2023-01-19T13:11:00.764Z,94597.76
2023-01-19T13:13:31.304Z,94593.20
2023-01-19T13:16:19.582Z,94573.48
2023-01-19T13:18:56.518Z,94558.54
2023-01-19T13:21:30.623Z,94556.75
2023-01-19T13:24:05.074Z,94565.42
2023-01-19T13:26:40.102Z,94571.72
2023-01-19T13:29:35.460Z,94583.23
2023-01-19T13:32:13.196Z,94582.39
2023-01-19T13:34:45.294Z,94582.96
2023-01-19T13:37:35.986Z,94574.63
2023-01-19T13:40:04.515Z,94566.09
2023-01-19T13:42:41.942Z,94574.39
2023-01-19T13:45:37.947Z,94586.45
2023-01-19T13:48:08.999Z,94588.80
2023-01-19T13:50:39.635Z,94589.95
2023-01-19T13:53:24.254Z,94589.95
2023-01-19T13:56:29.601Z,94590.77
2023-01-19T13:59:07.050Z,94590.98
2023-01-19T14:01:35.969Z,94594.50
2023-01-19T14:04:04.763Z,94595.46
2023-01-19T14:06:39.851Z,94601.54
2023-01-19T14:09:16.608Z,94612.05
2023-01-19T14:12:17.611Z,94617.02
2023-01-19T14:14:48.458Z,94623.20
2023-01-19T14:17:32.164Z,94626.71
2023-01-19T14:20:03.013Z,94629.36
2023-01-19T14:22:44.854Z,94624.98
2023-01-19T14:25:29.616Z,94629.73
2023-01-19T14:28:39.948Z,94635.11
2023-01-19T14:31:27.685Z,94640.10
2023-01-19T14:33:58.566Z,94643.98
2023-01-19T14:36:33.664Z,94647.45
2023-01-19T14:39:03.209Z,94643.90
2023-01-19T14:41:39.118Z,94646.95
2023-01-19T14:44:11.750Z,94647.60
2023-01-19T14:46:47.303Z,94647.55
2023-01-19T14:49:29.760Z,94643.02
2023-01-19T14:51:58.726Z,94644.05
2023-01-19T14:54:34.788Z,94640.83
2023-01-19T14:57:03.958Z,94642.12
2023-01-19T14:59:33.143Z,94630.11
2023-01-19T15:02:01.855Z,94625.50
2023-01-19T15:04:29.963Z,94632.46
2023-01-19T15:06:58.541Z,94640.38
2023-01-19T15:09:27.256Z,94644.53
2023-01-19T15:11:55.798Z,94648.37
2023-01-19T15:14:24.121Z,94643.75
2023-01-19T15:16:52.419Z,94642.60
2023-01-19T15:19:20.881Z,94649.63
2023-01-19T15:21:49.434Z,94655.78
2023-01-19T15:24:18.090Z,94653.95
2023-01-19T15:26:46.689Z,94661.64
2023-01-19T15:29:17.197Z,94662.81
2023-01-19T15:31:45.548Z,94669.78
2023-01-19T15:34:14.694Z,94670.71
2023-01-19T15:36:42.935Z,94672.44
2023-01-19T15:39:11.132Z,94674.21
2023-01-19T15:41:40.623Z,94677.52
2023-01-19T15:44:10.959Z,94687.11
2023-01-19T15:46:39.101Z,94691.48
2023-01-19T15:49:07.295Z,94699.80
2023-01-19T15:51:35.341Z,94714.48
2023-01-19T15:54:03.311Z,94717.88
2023-01-19T15:56:33.004Z,94727.83
2023-01-19T15:59:03.124Z,94737.31
2023-01-19T16:01:34.017Z,94744.77
2023-01-19T16:04:05.382Z,94748.58
2023-01-19T16:06:34.413Z,94747.32
2023-01-19T16:09:04.499Z,94754.30
2023-01-19T16:11:35.162Z,94757.48
2023-01-19T16:14:03.525Z,94766.19
2023-01-19T16:16:31.633Z,94772.77
2023-01-19T16:18:59.794Z,94776.44
2023-01-19T16:21:27.932Z,94780.02
2023-01-19T16:23:56.161Z,94782.72
2023-01-19T16:26:34.446Z,94793.21
2023-01-19T16:29:10.941Z,94800.42
2023-01-19T16:31:41.028Z,94801.60
2023-01-19T16:34:10.401Z,94805.91
2023-01-19T16:36:47.911Z,94811.95
2023-01-19T16:39:17.666Z,94812.25
2023-01-19T16:41:46.371Z,94819.63
2023-01-19T16:44:16.523Z,94815.30
2023-01-19T16:46:46.802Z,94797.92
2023-01-19T16:49:21.220Z,94777.20
2023-01-19T16:51:51.065Z,94782.52
2023-01-19T16:54:22.163Z,94797.40
2023-01-19T16:56:53.515Z,94779.70
2023-01-19T16:59:22.865Z,94761.98
2023-01-19T17:01:52.152Z,94752.29
2023-01-19T17:04:22.964Z,94753.95
2023-01-19T17:06:51.135Z,94757.13
2023-01-19T17:09:19.535Z,94768.83
2023-01-19T17:11:47.706Z,94784.38
2023-01-19T17:14:20.523Z,94788.11
2023-01-19T17:16:49.763Z,94800.44
2023-01-19T17:19:20.776Z,94805.30
2023-01-19T17:21:50.256Z,94807.77
2023-01-19T17:24:20.065Z,94814.08
2023-01-19T17:26:49.964Z,94811.11
2023-01-19T17:29:24.649Z,94809.11
2023-01-19T17:31:56.445Z,94818.38
2023-01-19T17:34:25.201Z,94826.41
2023-01-19T17:36:58.409Z,94822.86
2023-01-19T17:39:26.519Z,94822.80
2023-01-19T17:41:54.622Z,94836.17
2023-01-19T17:44:22.705Z,94840.54
2023-01-19T17:46:51.588Z,94839.63
2023-01-19T17:49:20.500Z,94838.15
2023-01-19T17:51:54.544Z,94838.11
2023-01-19T17:54:23.178Z,94850.06
2023-01-19T17:56:51.451Z,94861.25
2023-01-19T17:59:20.590Z,94870.30
2023-01-19T18:01:49.228Z,94867.95
2023-01-19T18:04:17.643Z,94864.21
2023-01-19T18:06:47.155Z,94869.22
2023-01-19T18:09:15.852Z,94870.45
2023-01-19T18:11:44.533Z,94869.59
2023-01-19T18:14:13.069Z,94871.64
2023-01-19T18:16:42.103Z,94878.74
2023-01-19T18:19:10.242Z,94887.38
2023-01-19T18:22:08.232Z,94896.69
2023-01-19T18:24:37.035Z,94898.57
2023-01-19T18:27:05.671Z,94901.85
2023-01-19T18:29:33.797Z,94897.89
2023-01-19T18:32:01.898Z,94901.96
2023-01-19T18:34:30.012Z,94906.20
2023-01-19T18:36:58.086Z,94913.33
2023-01-19T18:39:26.264Z,94916.20
2023-01-19T18:41:54.243Z,94923.86
2023-01-19T18:44:23.615Z,94932.00
2023-01-19T18:46:53.916Z,94935.02
2023-01-19T18:49:22.107Z,94942.75
2023-01-19T18:51:50.334Z,94944.59
2023-01-19T18:54:18.486Z,94944.14
2023-01-19T18:56:49.482Z,94942.43
2023-01-19T18:59:18.086Z,94944.05
2023-01-19T19:01:46.871Z,94942.45
2023-01-19T19:04:14.995Z,94930.69
2023-01-19T19:06:43.627Z,94933.16
2023-01-19T19:09:11.906Z,94943.04
2023-01-19T19:11:41.095Z,94941.44
2023-01-19T19:14:09.874Z,94937.27
2023-01-19T19:16:39.516Z,94935.89
2023-01-19T19:19:08.571Z,94926.14
2023-01-19T19:21:36.767Z,94918.40
2023-01-19T19:24:04.910Z,94908.67
2023-01-19T19:26:32.964Z,94907.70
2023-01-19T19:29:01.575Z,94904.48
2023-01-19T19:31:30.655Z,94910.78
2023-01-19T19:33:59.936Z,94911.37
2023-01-19T19:36:30.104Z,94915.45
2023-01-19T19:39:00.509Z,94921.09
2023-01-19T19:41:29.143Z,94922.07
2023-01-19T19:44:00.805Z,94924.55
2023-01-19T19:46:29.737Z,94930.01
2023-01-19T19:48:58.529Z,94931.39
2023-01-19T19:51:30.424Z,94935.91
2023-01-19T19:54:00.565Z,94939.77
2023-01-19T19:56:32.378Z,94933.55
2023-01-19T19:59:01.087Z,94931.68
2023-01-19T20:01:33.510Z,94931.41
2023-01-19T20:04:13.340Z,94935.41
2023-01-19T20:06:44.845Z,94926.98
2023-01-19T20:09:14.932Z,94926.95
2023-01-19T20:11:46.828Z,94929.77
2023-01-19T20:14:35.637Z,94929.45
2023-01-19T20:17:05.120Z,94927.72
2023-01-19T20:19:33.255Z,94924.17
2023-01-19T20:22:01.961Z,94924.95
2023-01-19T20:24:30.187Z,94931.48
2023-01-19T20:26:58.471Z,94939.23
2023-01-19T20:29:27.040Z,94942.12
2023-01-19T20:31:57.357Z,94947.50
2023-01-19T20:34:32.951Z,94950.85
2023-01-19T20:37:22.050Z,94957.15
2023-01-19T20:39:52.113Z,94961.50
2023-01-19T20:42:21.558Z,94967.38
2023-01-19T20:44:50.542Z,94975.64
2023-01-19T20:47:18.821Z,94981.38
2023-01-19T20:49:46.982Z,94986.32
2023-01-19T20:52:15.069Z,94990.37
2023-01-19T20:54:43.216Z,94987.50
2023-01-19T20:57:11.522Z,94987.43
2023-01-19T20:59:41.017Z,94989.95
2023-01-19T21:02:14.368Z,94999.44
2023-01-19T21:04:42.605Z,95003.27
2023-01-19T21:07:16.860Z,94997.27
2023-01-19T21:09:45.269Z,94998.42
2023-01-19T21:12:16.141Z,94996.48
2023-01-19T21:14:45.943Z,94994.55
2023-01-19T21:17:14.113Z,94989.85
2023-01-19T21:19:42.157Z,94988.48
2023-01-19T21:22:10.196Z,94992.63
2023-01-19T21:24:38.246Z,94993.20
2023-01-19T21:27:06.359Z,94993.94
2023-01-19T21:29:34.434Z,94995.64
2023-01-19T21:32:02.506Z,94989.11
2023-01-19T21:34:30.489Z,94989.48
2023-01-19T21:36:58.762Z,95005.93
2023-01-19T21:39:26.816Z,95022.41
2023-01-19T21:41:54.834Z,95023.61
2023-01-19T21:44:22.839Z,95019.52
2023-01-19T21:46:50.909Z,95013.63
2023-01-19T21:49:20.447Z,95016.73
2023-01-19T21:51:50.784Z,95016.19
2023-01-19T21:54:19.216Z,95019.05
2023-01-19T21:56:47.226Z,95015.50
2023-01-19T21:59:15.861Z,95017.68
2023-01-19T22:05:56.062Z,95029.27
2023-01-19T22:08:25.269Z,95022.27
2023-01-19T22:10:53.527Z,95014.08
2023-01-19T22:13:44.376Z,95007.41
2023-01-19T22:16:18.198Z,94999.65
2023-01-19T22:19:14.468Z,94998.96
2023-01-19T22:21:43.570Z,95000.10
2023-01-19T22:24:19.962Z,95002.84
2023-01-19T22:27:10.690Z,95000.35
2023-01-19T22:29:48.497Z,94999.66
2023-01-19T22:32:37.205Z,94994.98
2023-01-19T22:35:27.397Z,94995.15
2023-01-19T22:38:12.781Z,94994.21
2023-01-19T22:41:00.998Z,94992.75
2023-01-19T22:43:29.081Z,94991.92
2023-01-19T22:45:59.166Z,94984.45
2023-01-19T22:48:27.379Z,94983.17
2023-01-19T22:50:58.485Z,94979.68
2023-01-19T22:53:27.215Z,94966.89
2023-01-19T22:55:55.368Z,94965.42
2023-01-19T22:58:23.589Z,94968.54
2023-01-19T23:00:51.715Z,94970.10
2023-01-19T23:03:19.744Z,94973.94
2023-01-19T23:05:47.727Z,94977.45
2023-01-19T23:08:16.459Z,94981.96
2023-01-19T23:10:44.487Z,94988.09
2023-01-19T23:13:12.470Z,94992.52
2023-01-19T23:15:40.619Z,94997.48
2023-01-19T23:18:08.713Z,94993.70
2023-01-19T23:20:37.183Z,94990.46
2023-01-19T23:23:05.277Z,94989.28
2023-01-19T23:25:33.328Z,94988.79
2023-01-19T23:28:01.466Z,94982.92
2023-01-19T23:30:29.472Z,94980.00
2023-01-19T23:32:57.510Z,94981.64
2023-01-19T23:35:25.508Z,94977.79
2023-01-19T23:37:53.473Z,94968.27
2023-01-19T23:40:21.475Z,94960.35
2023-01-19T23:42:49.463Z,94965.05
2023-01-19T23:45:17.403Z,94978.33
2023-01-19T23:47:46.470Z,94981.73
2023-01-19T23:50:14.491Z,94981.67
2023-01-19T23:52:42.592Z,94980.09
2023-01-19T23:55:10.682Z,94977.04
2023-01-19T23:57:38.739Z,94975.90
